createdAt,value
2023-01-10T00:01:58.775Z,1.77
2023-01-10T00:04:28.719Z,2.70
2023-01-10T00:06:58.157Z,3.67
2023-01-10T00:09:26.221Z,0.30
2023-01-10T00:12:11.596Z,0.83
2023-01-10T00:14:39.714Z,0.40
2023-01-10T00:17:07.894Z,0.40
2023-01-10T00:19:35.864Z,0.40
2023-01-10T00:22:13.721Z,2.47
2023-01-10T00:24:42.998Z,1.07
2023-01-10T00:27:16.241Z,1.07
2023-01-10T00:29:44.600Z,1.67
2023-01-10T00:32:12.663Z,1.93
2023-01-10T00:34:40.606Z,1.20
2023-01-10T00:37:10.048Z,2.97
2023-01-10T00:39:38.007Z,2.20
2023-01-10T00:42:24.009Z,1.80
2023-01-10T00:44:52.551Z,1.10
2023-01-10T00:47:20.568Z,1.87
2023-01-10T00:49:48.555Z,1.20
2023-01-10T00:52:17.887Z,1.70
2023-01-10T00:54:46.036Z,2.10
2023-01-10T00:57:13.960Z,2.07
2023-01-10T00:59:41.904Z,0.67
2023-01-10T01:02:09.954Z,1.27
2023-01-10T01:04:38.079Z,0.67
2023-01-10T01:07:06.058Z,1.43
2023-01-10T01:09:55.378Z,1.67
2023-01-10T01:12:23.344Z,1.40
2023-01-10T01:14:51.405Z,0.77
2023-01-10T01:17:19.537Z,1.47
2023-01-10T01:19:47.503Z,0.70
2023-01-10T01:22:15.489Z,0.70
2023-01-10T01:24:45.351Z,0.50
2023-01-10T01:27:13.319Z,0.40
2023-01-10T01:29:43.418Z,0.40
2023-01-10T01:32:12.124Z,0.80
2023-01-10T01:34:41.138Z,0.40
2023-01-10T01:37:09.666Z,0.70
2023-01-10T01:39:37.685Z,2.83
2023-01-10T01:42:07.799Z,0.57
2023-01-10T01:44:40.575Z,0.53
2023-01-10T01:47:13.753Z,0.30
2023-01-10T01:49:46.068Z,0.47
2023-01-10T01:52:20.730Z,0.30
2023-01-10T01:54:48.707Z,1.57
2023-01-10T01:57:21.175Z,0.63
2023-01-10T01:59:53.451Z,0.67
2023-01-10T02:02:27.224Z,1.13
2023-01-10T02:04:59.745Z,0.90
2023-01-10T02:07:30.255Z,2.13
2023-01-10T02:10:02.506Z,1.33
2023-01-10T02:12:33.818Z,1.20
2023-01-10T02:15:03.054Z,1.93
2023-01-10T02:17:31.151Z,1.37
2023-01-10T02:20:03.256Z,1.37
2023-01-10T02:23:03.993Z,1.83
2023-01-10T02:26:17.437Z,1.63
2023-01-10T02:29:09.719Z,1.97
2023-01-10T02:32:23.489Z,1.63
2023-01-10T02:35:09.750Z,2.43
2023-01-10T02:37:46.536Z,1.83
2023-01-10T02:40:23.441Z,2.20
2023-01-10T02:42:59.257Z,1.60
2023-01-10T02:45:32.132Z,0.97
2023-01-10T02:48:01.499Z,0.30
2023-01-10T02:50:45.035Z,0.50
2023-01-10T02:53:17.293Z,0.37
2023-01-10T02:56:03.312Z,3.67
2023-01-10T02:58:49.482Z,0.73
2023-01-10T03:01:27.076Z,0.80
2023-01-10T03:04:05.037Z,0.40
2023-01-10T03:06:41.114Z,0.50
2023-01-10T03:09:16.512Z,0.77
2023-01-10T03:11:50.558Z,0.30
2023-01-10T03:14:22.642Z,1.10
2023-01-10T03:16:56.546Z,0.43
2023-01-10T03:19:30.562Z,1.33
2023-01-10T03:22:01.739Z,1.67
2023-01-10T03:24:34.973Z,1.47
2023-01-10T03:27:08.471Z,1.60
2023-01-10T03:29:43.499Z,1.63
2023-01-10T03:32:14.906Z,1.87
2023-01-10T03:34:45.902Z,1.77
2023-01-10T03:37:18.392Z,1.20
2023-01-10T03:39:55.471Z,1.73
2023-01-10T03:42:29.494Z,2.53
2023-01-10T03:45:02.096Z,2.33
2023-01-10T03:47:35.836Z,1.40
2023-01-10T03:50:10.304Z,30.27
2023-01-10T03:52:41.120Z,1.20
2023-01-10T03:55:14.080Z,1.70
2023-01-10T03:57:45.549Z,1.40
2023-01-10T04:00:15.177Z,2.10
2023-01-10T04:02:44.238Z,2.00
2023-01-10T04:05:18.983Z,1.97
2023-01-10T04:07:47.748Z,1.20
2023-01-10T04:10:16.359Z,2.30
2023-01-10T04:12:44.374Z,1.83
2023-01-10T04:15:13.161Z,2.10
2023-01-10T04:17:41.124Z,1.70
2023-01-10T04:20:10.632Z,1.30
2023-01-10T04:22:40.003Z,2.67
2023-01-10T04:25:08.968Z,1.87
2023-01-10T04:27:37.093Z,1.40
2023-01-10T04:30:06.252Z,1.90
2023-01-10T04:32:34.355Z,1.40
2023-01-10T04:35:02.337Z,1.60
2023-01-10T04:37:30.273Z,2.83
2023-01-10T04:39:59.605Z,1.80
2023-01-10T04:42:27.825Z,1.90
2023-01-10T04:44:55.822Z,1.67
2023-01-10T04:47:23.805Z,1.20
2023-01-10T04:49:51.830Z,3.17
2023-01-10T04:52:19.770Z,1.27
2023-01-10T04:54:47.843Z,1.33
2023-01-10T04:57:17.120Z,1.20
2023-01-10T04:59:45.125Z,1.10
2023-01-10T05:02:13.173Z,1.93
2023-01-10T05:04:41.168Z,1.70
2023-01-10T05:07:09.096Z,1.30
2023-01-10T05:09:37.088Z,1.20
2023-01-10T05:12:05.493Z,1.60
2023-01-10T05:14:34.889Z,2.40
2023-01-10T05:17:02.874Z,1.60
2023-01-10T05:19:30.848Z,2.13
2023-01-10T05:21:58.826Z,1.83
2023-01-10T05:24:26.946Z,1.30
2023-01-10T05:26:54.894Z,3.43
2023-01-10T05:29:22.892Z,1.43
2023-01-10T05:31:54.028Z,2.07
2023-01-10T05:34:22.284Z,6.30
2023-01-10T05:36:50.260Z,1.80
2023-01-10T05:39:18.301Z,1.90
2023-01-10T05:41:46.301Z,2.13
2023-01-10T05:44:14.976Z,1.50
2023-01-10T05:46:43.348Z,2.13
2023-01-10T05:49:12.706Z,1.30
2023-01-10T05:51:42.356Z,1.20
2023-01-10T05:54:10.498Z,1.27
2023-01-10T05:56:39.545Z,1.40
2023-01-10T05:59:17.077Z,2.30
2023-01-10T06:01:55.175Z,1.30
2023-01-10T06:04:24.567Z,2.07
2023-01-10T06:06:52.570Z,1.83
2023-01-10T06:09:20.617Z,1.70
2023-01-10T06:11:48.597Z,1.60
2023-01-10T06:14:19.341Z,2.63
2023-01-10T06:16:47.689Z,1.37
2023-01-10T06:19:15.783Z,2.20
2023-01-10T06:21:45.280Z,2.30
2023-01-10T06:24:15.474Z,4.83
2023-01-10T06:26:43.500Z,1.20
2023-01-10T06:29:11.621Z,1.70
2023-01-10T06:31:39.665Z,1.87
2023-01-10T06:34:07.722Z,2.00
2023-01-10T06:36:35.701Z,2.43
2023-01-10T06:39:05.322Z,1.70
2023-01-10T06:41:33.560Z,1.77
2023-01-10T06:44:01.608Z,1.40
2023-01-10T06:46:29.684Z,4.67
2023-01-10T06:48:57.931Z,2.23
2023-01-10T06:51:26.379Z,1.30
2023-01-10T06:53:54.525Z,1.87
2023-01-10T06:56:23.912Z,2.40
2023-01-10T06:58:51.913Z,1.63
2023-01-10T07:01:21.765Z,1.90
2023-01-10T07:03:50.186Z,2.20
2023-01-10T07:06:18.604Z,1.60
2023-01-10T07:08:48.309Z,1.77
2023-01-10T07:11:17.660Z,1.53
2023-01-10T07:13:47.206Z,1.43
2023-01-10T07:16:17.156Z,2.57
2023-01-10T07:18:45.203Z,1.80
2023-01-10T07:21:13.711Z,1.60
2023-01-10T07:23:42.694Z,1.50
2023-01-10T07:26:17.731Z,1.10
2023-01-10T07:28:50.917Z,2.23
2023-01-10T07:31:20.364Z,1.77
2023-01-10T07:33:48.546Z,1.20
2023-01-10T07:36:16.533Z,2.03
2023-01-10T07:38:44.870Z,1.97
2023-01-10T07:41:12.856Z,1.20
2023-01-10T07:43:40.913Z,1.10
2023-01-10T07:46:12.412Z,1.40
2023-01-10T07:48:44.982Z,2.23
2023-01-10T07:51:13.013Z,2.17
2023-01-10T07:53:41.003Z,2.83
2023-01-10T07:56:09.327Z,2.43
2023-01-10T07:58:37.326Z,1.20
2023-01-10T08:01:07.436Z,1.97
2023-01-10T08:03:37.113Z,2.80
2023-01-10T08:06:06.947Z,1.70
2023-01-10T08:08:35.815Z,1.53
2023-01-10T08:11:04.365Z,2.40
2023-01-10T08:13:33.337Z,1.37
2023-01-10T08:16:01.502Z,1.50
2023-01-10T08:18:29.547Z,2.57
2023-01-10T08:20:59.153Z,1.10
2023-01-10T08:23:27.250Z,1.30
2023-01-10T08:25:55.656Z,1.03
2023-01-10T08:28:23.718Z,1.70
2023-01-10T08:30:55.550Z,1.37
2023-01-10T08:33:24.507Z,0.77
2023-01-10T08:35:52.748Z,2.13
2023-01-10T08:38:22.095Z,2.30
2023-01-10T08:40:50.099Z,1.97
2023-01-10T08:43:18.173Z,5.10
2023-01-10T08:45:46.144Z,1.73
2023-01-10T08:48:14.283Z,2.33
2023-01-10T08:50:42.340Z,4.20
2023-01-10T08:53:10.943Z,4.50
2023-01-10T08:55:40.262Z,2.20
2023-01-10T08:58:08.283Z,5.37
2023-01-10T09:00:36.365Z,2.33
2023-01-10T09:03:07.733Z,0.70
2023-01-10T09:05:36.043Z,1.40
2023-01-10T09:08:04.608Z,2.10
2023-01-10T09:10:32.586Z,1.90
2023-01-10T09:13:02.135Z,2.00
2023-01-10T09:15:32.277Z,1.30
2023-01-10T09:18:02.219Z,1.70
2023-01-10T09:20:30.880Z,1.73
2023-01-10T09:22:59.670Z,1.80
2023-01-10T09:25:27.741Z,3.47
2023-01-10T09:27:59.669Z,3.50
2023-01-10T09:30:30.531Z,2.93
2023-01-10T09:32:59.406Z,2.13
2023-01-10T09:35:29.148Z,2.83
2023-01-10T09:37:57.830Z,2.23
2023-01-10T09:40:37.462Z,1.40
2023-01-10T09:43:15.460Z,1.93
2023-01-10T09:45:56.128Z,16.60
2023-01-10T09:48:31.915Z,1.97
2023-01-10T09:51:13.224Z,2.63
2023-01-10T09:53:44.610Z,3.80
2023-01-10T09:56:15.578Z,1.37
2023-01-10T09:58:44.867Z,1.83
2023-01-10T10:01:18.181Z,1.50
2023-01-10T10:03:53.044Z,2.10
2023-01-10T10:06:23.050Z,2.93
2023-01-10T10:08:53.230Z,1.87
2023-01-10T10:11:40.408Z,2.20
2023-01-10T10:14:16.177Z,1.20
2023-01-10T10:17:00.245Z,2.90
2023-01-10T10:19:38.131Z,1.77
2023-01-10T10:22:13.881Z,1.90
2023-01-10T10:24:53.947Z,1.27
2023-01-10T10:27:25.037Z,1.77
2023-01-10T10:30:24.329Z,1.63
2023-01-10T10:33:15.186Z,1.30
2023-01-10T10:35:46.660Z,1.83
2023-01-10T10:38:21.978Z,2.67
2023-01-10T10:40:51.520Z,1.30
2023-01-10T10:43:22.408Z,1.20
2023-01-10T10:45:56.257Z,1.83
2023-01-10T10:48:31.061Z,2.00
2023-01-10T10:51:08.695Z,2.67
2023-01-10T10:53:37.557Z,1.40
2023-01-10T10:56:11.747Z,1.57
2023-01-10T10:58:43.099Z,1.37
2023-01-10T11:01:14.657Z,1.40
2023-01-10T11:03:48.902Z,2.37
2023-01-10T11:06:19.366Z,1.40
2023-01-10T11:08:49.665Z,1.67
2023-01-10T11:11:23.108Z,1.90
2023-01-10T11:13:55.877Z,1.77
2023-01-10T11:16:30.718Z,2.03
2023-01-10T11:19:20.722Z,2.57
2023-01-10T11:21:53.525Z,1.47
2023-01-10T11:24:35.117Z,1.27
2023-01-10T11:27:06.194Z,2.07
2023-01-10T11:29:40.926Z,1.40
2023-01-10T11:32:15.704Z,1.40
2023-01-10T11:34:53.778Z,1.90
2023-01-10T11:37:25.311Z,1.50
2023-01-10T11:40:20.245Z,1.30
2023-01-10T11:42:49.013Z,1.60
2023-01-10T11:45:31.572Z,2.07
2023-01-10T11:48:08.922Z,1.57
2023-01-10T11:50:40.951Z,1.70
2023-01-10T11:53:32.405Z,0.87
2023-01-10T11:56:01.318Z,1.23
2023-01-10T11:58:33.562Z,1.90
2023-01-10T12:01:04.669Z,0.83
2023-01-10T12:03:37.283Z,0.60
2023-01-10T12:06:10.849Z,0.40
2023-01-10T12:08:42.561Z,0.73
2023-01-10T12:11:27.507Z,0.60
2023-01-10T12:13:58.033Z,1.53
2023-01-10T12:16:28.159Z,1.00
2023-01-10T12:19:00.881Z,2.30
2023-01-10T12:21:36.468Z,2.07
2023-01-10T12:24:12.416Z,1.50
2023-01-10T12:26:42.203Z,2.50
2023-01-10T12:29:18.779Z,2.93
2023-01-10T12:31:47.672Z,4.00
2023-01-10T12:34:20.530Z,7.17
2023-01-10T12:37:02.480Z,15.10
2023-01-10T12:39:35.130Z,23.97
2023-01-10T12:42:35.804Z,22.40
2023-01-10T12:45:13.516Z,24.80
2023-01-10T12:47:55.700Z,22.27
2023-01-10T12:50:27.755Z,21.27
2023-01-10T12:53:04.714Z,20.50
2023-01-10T12:55:37.867Z,21.10
2023-01-10T12:58:07.572Z,22.20
2023-01-10T13:00:48.492Z,20.87
2023-01-10T13:03:22.463Z,23.80
2023-01-10T13:05:53.098Z,24.47
2023-01-10T13:08:25.350Z,20.20
2023-01-10T13:10:57.491Z,19.90
2023-01-10T13:13:35.561Z,20.00
2023-01-10T13:16:34.909Z,22.23
2023-01-10T13:19:23.471Z,25.60
2023-01-10T13:21:53.368Z,18.50
2023-01-10T13:24:26.542Z,19.93
2023-01-10T13:26:57.165Z,19.57
2023-01-10T13:29:29.966Z,20.70
2023-01-10T13:32:00.470Z,20.13
2023-01-10T13:34:35.045Z,15.20
2023-01-10T13:37:06.541Z,20.40
2023-01-10T13:39:39.745Z,19.60
2023-01-10T13:42:46.111Z,22.40
2023-01-10T13:45:23.455Z,24.87
2023-01-10T13:48:26.153Z,21.80
2023-01-10T13:51:15.426Z,25.17
2023-01-10T13:53:56.140Z,24.80
2023-01-10T13:56:34.552Z,25.47
2023-01-10T13:59:21.040Z,21.03
2023-01-10T14:02:11.475Z,21.40
2023-01-10T14:04:46.503Z,20.47
2023-01-10T14:07:26.685Z,20.23
2023-01-10T14:10:03.157Z,19.27
2023-01-10T14:12:40.471Z,19.00
2023-01-10T14:15:22.816Z,21.30
2023-01-10T14:17:59.925Z,20.70
2023-01-10T14:20:29.668Z,22.80
2023-01-10T14:23:07.656Z,21.00
2023-01-10T14:25:38.610Z,20.03
2023-01-10T14:28:21.198Z,19.10
2023-01-10T14:31:01.407Z,20.10
2023-01-10T14:33:30.843Z,19.67
2023-01-10T14:36:03.783Z,22.43
2023-01-10T14:38:34.332Z,19.10
2023-01-10T14:41:06.761Z,22.90
2023-01-10T14:43:43.133Z,19.00
2023-01-10T14:46:15.712Z,18.20
2023-01-10T14:48:51.228Z,21.67
2023-01-10T14:51:23.925Z,21.07
2023-01-10T14:54:00.004Z,20.70
2023-01-10T14:56:37.409Z,21.30
2023-01-10T14:59:26.247Z,20.60
2023-01-10T15:01:57.050Z,19.50
2023-01-10T15:04:28.908Z,18.57
2023-01-10T15:07:02.724Z,21.70
2023-01-10T15:09:33.176Z,19.23
2023-01-10T15:12:05.567Z,20.10
2023-01-10T15:14:38.413Z,21.33
2023-01-10T15:17:09.990Z,22.97
2023-01-10T15:19:40.875Z,22.63
2023-01-10T15:22:28.656Z,23.50
2023-01-10T15:25:02.132Z,21.77
2023-01-10T15:27:32.196Z,21.50
2023-01-10T15:30:02.447Z,24.10
2023-01-10T15:32:36.353Z,49.07
2023-01-10T15:35:05.346Z,48.07
2023-01-10T15:37:36.633Z,46.93
2023-01-10T15:40:08.721Z,49.53
2023-01-10T15:42:37.396Z,50.10
2023-01-10T15:45:29.245Z,49.80
2023-01-10T15:48:03.713Z,39.70
2023-01-10T15:50:35.544Z,40.63
2023-01-10T15:53:06.454Z,42.53
2023-01-10T15:55:42.199Z,42.10
2023-01-10T15:58:24.690Z,19.70
2023-01-10T16:00:55.821Z,20.43
2023-01-10T16:03:28.820Z,19.50
2023-01-10T16:05:59.501Z,18.73
2023-01-10T16:08:32.752Z,19.97
2023-01-10T16:11:02.729Z,19.40
2023-01-10T16:13:33.404Z,20.53
2023-01-10T16:16:05.413Z,19.17
2023-01-10T16:18:35.314Z,19.17
2023-01-10T16:21:07.073Z,16.57
2023-01-10T16:23:37.865Z,18.97
2023-01-10T16:26:10.476Z,17.90
2023-01-10T16:28:39.213Z,18.13
2023-01-10T16:31:14.495Z,17.70
2023-01-10T16:33:42.986Z,17.90
2023-01-10T16:36:17.184Z,18.77
2023-01-10T16:38:46.056Z,18.93
2023-01-10T16:41:33.476Z,20.00
2023-01-10T16:44:02.572Z,18.73
2023-01-10T16:46:32.878Z,18.07
2023-01-10T16:49:01.230Z,20.37
2023-01-10T16:51:32.760Z,18.80
2023-01-10T16:54:01.296Z,18.67
2023-01-10T16:56:30.637Z,17.90
2023-01-10T16:59:03.027Z,18.33
2023-01-10T17:01:38.520Z,18.23
2023-01-10T17:04:08.426Z,20.00
2023-01-10T17:06:36.904Z,19.23
2023-01-10T17:09:05.493Z,20.60
2023-01-10T17:11:38.972Z,19.43
2023-01-10T17:14:07.506Z,19.93
2023-01-10T17:16:37.396Z,19.53
2023-01-10T17:19:05.924Z,20.40
2023-01-10T17:21:34.291Z,20.63
2023-01-10T17:24:02.677Z,43.93
2023-01-10T17:26:30.960Z,43.93
2023-01-10T17:28:59.454Z,44.27
2023-01-10T17:31:27.781Z,47.53
2023-01-10T17:33:57.721Z,43.60
2023-01-10T17:36:29.955Z,43.63
2023-01-10T17:38:58.715Z,46.10
2023-01-10T17:41:27.290Z,44.53
2023-01-10T17:43:55.456Z,44.37
2023-01-10T17:46:23.723Z,45.13
2023-01-10T17:48:51.745Z,48.53
2023-01-10T17:51:22.947Z,44.17
2023-01-10T17:53:51.059Z,44.57
2023-01-10T17:56:19.029Z,45.43
2023-01-10T17:58:47.284Z,72.17
2023-01-10T18:01:22.335Z,17.13
2023-01-10T18:03:52.843Z,17.67
2023-01-10T18:06:24.900Z,16.93
2023-01-10T18:08:53.619Z,17.40
2023-01-10T18:11:22.804Z,17.73
2023-01-10T18:13:50.901Z,16.70
2023-01-10T18:16:18.919Z,16.77
2023-01-10T18:18:46.949Z,17.60
2023-01-10T18:21:16.709Z,17.40
2023-01-10T18:23:46.826Z,16.97
2023-01-10T18:26:14.914Z,17.20
2023-01-10T18:28:44.631Z,17.90
2023-01-10T18:31:15.970Z,17.77
2023-01-10T18:33:45.738Z,17.70
2023-01-10T18:36:15.858Z,20.70
2023-01-10T18:38:46.125Z,18.70
2023-01-10T18:41:14.873Z,17.90
2023-01-10T18:43:43.288Z,18.40
2023-01-10T18:46:13.789Z,17.57
2023-01-10T18:48:41.966Z,17.07
2023-01-10T18:51:12.466Z,17.10
2023-01-10T18:53:40.623Z,17.60
2023-01-10T18:56:11.463Z,42.27
2023-01-10T18:58:41.164Z,41.70
2023-01-10T19:01:10.825Z,44.13
2023-01-10T19:03:39.634Z,43.43
2023-01-10T19:06:11.323Z,43.53
2023-01-10T19:08:40.344Z,46.27
2023-01-10T19:11:14.939Z,44.47
2023-01-10T19:13:44.345Z,45.43
2023-01-10T19:16:14.106Z,46.30
2023-01-10T19:18:43.031Z,45.60
2023-01-10T19:21:15.237Z,43.07
2023-01-10T19:23:43.875Z,43.60
2023-01-10T19:26:13.894Z,18.60
2023-01-10T19:28:42.525Z,18.50
2023-01-10T19:31:10.676Z,19.23
2023-01-10T19:33:39.178Z,18.83
2023-01-10T19:36:08.255Z,18.67
2023-01-10T19:38:36.395Z,18.70
2023-01-10T19:41:04.825Z,18.43
2023-01-10T19:43:34.724Z,18.07
2023-01-10T19:46:07.300Z,17.23
2023-01-10T19:48:38.434Z,17.90
2023-01-10T19:51:07.682Z,17.00
2023-01-10T19:53:36.993Z,17.37
2023-01-10T19:56:09.516Z,17.20
2023-01-10T19:58:39.845Z,16.90
2023-01-10T20:01:13.064Z,17.00
2023-01-10T20:03:42.444Z,16.50
2023-01-10T20:06:14.088Z,16.17
2023-01-10T20:08:42.509Z,16.73
2023-01-10T20:11:10.716Z,15.43
2023-01-10T20:13:44.761Z,16.70
2023-01-10T20:16:13.599Z,16.37
2023-01-10T20:18:41.707Z,16.97
2023-01-10T20:21:11.593Z,17.30
2023-01-10T20:23:41.211Z,16.77
2023-01-10T20:26:11.524Z,41.47
2023-01-10T20:28:41.899Z,41.83
2023-01-10T20:31:11.196Z,42.07
2023-01-10T20:33:39.234Z,44.20
2023-01-10T20:36:08.875Z,43.60
2023-01-10T20:38:38.195Z,45.47
2023-01-10T20:41:09.824Z,44.70
2023-01-10T20:43:38.686Z,43.63
2023-01-10T20:46:10.852Z,44.27
2023-01-10T20:48:39.028Z,43.57
2023-01-10T20:51:07.749Z,44.40
2023-01-10T20:53:35.907Z,44.47
2023-01-10T20:56:04.268Z,45.23
2023-01-10T20:58:33.018Z,46.33
2023-01-10T21:01:01.003Z,47.17
2023-01-10T21:03:30.416Z,45.80
2023-01-10T21:05:59.727Z,45.97
2023-01-10T21:08:29.629Z,167.93
2023-01-10T21:10:58.222Z,19.07
2023-01-10T21:13:26.326Z,18.60
2023-01-10T21:15:56.056Z,17.87
2023-01-10T21:18:26.024Z,19.50
2023-01-10T21:20:56.676Z,17.70
2023-01-10T21:23:26.011Z,17.63
2023-01-10T21:25:54.708Z,18.13
2023-01-10T21:28:23.019Z,17.60
2023-01-10T21:30:51.014Z,16.60
2023-01-10T21:33:19.054Z,17.33
2023-01-10T21:35:53.019Z,15.90
2023-01-10T21:38:22.783Z,15.70
2023-01-10T21:40:50.904Z,16.20
2023-01-10T21:43:18.983Z,14.90
2023-01-10T21:45:47.027Z,14.87
2023-01-10T21:48:15.326Z,15.40
2023-01-10T21:50:44.837Z,15.33
2023-01-10T21:53:13.050Z,14.27
2023-01-10T21:55:45.214Z,15.53
2023-01-10T21:58:13.217Z,35.53
2023-01-10T22:00:41.244Z,37.10
2023-01-10T22:03:09.305Z,40.07
2023-01-10T22:05:37.367Z,39.50
2023-01-10T22:08:05.665Z,39.33
2023-01-10T22:10:33.778Z,39.70
2023-01-10T22:13:03.125Z,39.03
2023-01-10T22:15:32.006Z,39.90
2023-01-10T22:18:01.241Z,40.03
2023-01-10T22:20:29.263Z,39.97
2023-01-10T22:22:57.339Z,40.23
2023-01-10T22:25:25.330Z,205.90
2023-01-10T22:27:53.664Z,38.47
2023-01-10T22:30:22.980Z,39.00
2023-01-10T22:32:51.042Z,38.47
2023-01-10T22:35:19.391Z,38.87
2023-01-10T22:37:47.324Z,38.67
2023-01-10T22:40:15.403Z,40.10
2023-01-10T22:42:43.424Z,40.27
2023-01-10T22:45:12.421Z,38.57
2023-01-10T22:47:41.741Z,39.57
2023-01-10T22:50:10.661Z,14.40
2023-01-10T22:52:38.623Z,14.47
2023-01-10T22:55:08.005Z,13.60
2023-01-10T22:57:46.283Z,13.40
2023-01-10T23:00:15.710Z,13.00
2023-01-10T23:02:45.206Z,12.50
2023-01-10T23:05:13.376Z,12.77
2023-01-10T23:07:41.318Z,12.33
2023-01-10T23:10:28.444Z,12.90
2023-01-10T23:12:57.882Z,12.30
2023-01-10T23:15:26.242Z,12.00
2023-01-10T23:17:55.793Z,13.43
2023-01-10T23:20:23.796Z,11.60
2023-01-10T23:22:51.815Z,10.70
2023-01-10T23:25:20.148Z,10.97
2023-01-10T23:27:48.187Z,10.50
2023-01-10T23:30:16.645Z,10.70
2023-01-10T23:32:44.695Z,9.40
2023-01-10T23:35:14.040Z,9.07
2023-01-10T23:37:42.068Z,8.20
2023-01-10T23:40:11.397Z,8.70
2023-01-10T23:42:39.548Z,9.63
2023-01-10T23:45:08.873Z,8.90
2023-01-10T23:47:36.899Z,9.13
2023-01-10T23:50:05.915Z,9.93
2023-01-10T23:52:35.287Z,9.37
2023-01-10T23:55:03.319Z,9.20
2023-01-10T23:57:31.247Z,10.00
